createdAt,value
2024-03-04T00:00:26.420Z,3.96
2024-03-04T00:02:53.316Z,3.92
2024-03-04T00:05:20.365Z,3.45
2024-03-04T00:07:47.814Z,3.44
2024-03-04T00:10:14.547Z,3.47
2024-03-04T00:12:41.587Z,3.41
2024-03-04T00:15:09.856Z,3.46
2024-03-04T00:17:36.702Z,3.57
2024-03-04T00:20:07.863Z,3.71
2024-03-04T00:22:35.270Z,3.84
2024-03-04T00:25:02.183Z,3.88
2024-03-04T00:27:29.206Z,3.91
2024-03-04T00:29:55.806Z,3.72
2024-03-04T00:32:22.619Z,3.57
2024-03-04T00:34:49.372Z,3.57
2024-03-04T00:37:16.124Z,3.48
2024-03-04T00:39:43.411Z,3.50
2024-03-04T00:42:10.128Z,3.56
2024-03-04T00:44:37.252Z,3.54
2024-03-04T00:47:04.184Z,3.64
2024-03-04T00:49:30.972Z,3.61
2024-03-04T00:51:57.777Z,3.51
2024-03-04T00:54:24.401Z,3.40
2024-03-04T00:56:51.357Z,3.24
2024-03-04T00:59:18.631Z,3.18
2024-03-04T01:01:45.413Z,3.16
2024-03-04T01:04:12.050Z,3.01
2024-03-04T01:06:40.058Z,3.00
2024-03-04T01:09:06.914Z,3.02
2024-03-04T01:11:34.039Z,3.09
2024-03-04T01:14:00.886Z,3.19
2024-03-04T01:16:27.719Z,3.37
2024-03-04T01:18:54.627Z,3.43
2024-03-04T01:21:21.254Z,3.37
2024-03-04T01:23:48.029Z,3.24
2024-03-04T01:26:15.416Z,3.23
2024-03-04T01:28:42.105Z,3.08
2024-03-04T01:31:09.160Z,3.02
2024-03-04T01:33:36.052Z,2.87
2024-03-04T01:36:05.597Z,2.88
2024-03-04T01:38:32.200Z,2.85
2024-03-04T01:40:59.225Z,2.78
2024-03-04T01:43:26.103Z,2.81
2024-03-04T01:45:53.047Z,2.85
2024-03-04T01:48:20.110Z,2.91
2024-03-04T01:50:47.261Z,2.93
2024-03-04T01:53:15.364Z,2.97
2024-03-04T01:55:44.884Z,2.93
2024-03-04T01:58:18.620Z,2.92
2024-03-04T02:00:50.131Z,3.07
2024-03-04T02:03:19.628Z,3.04
2024-03-04T02:05:48.645Z,3.06
2024-03-04T02:08:17.435Z,3.03
2024-03-04T02:10:45.625Z,3.07
2024-03-04T02:13:12.604Z,3.22
2024-03-04T02:15:39.837Z,3.36
2024-03-04T02:18:07.224Z,3.47
2024-03-04T02:20:39.392Z,3.48
2024-03-04T02:23:08.874Z,3.59
2024-03-04T02:25:56.263Z,3.53
2024-03-04T02:28:23.766Z,3.52
2024-03-04T02:30:51.659Z,3.83
2024-03-04T02:33:23.237Z,4.26
2024-03-04T02:35:51.139Z,4.49
2024-03-04T02:38:19.234Z,4.67
2024-03-04T02:40:47.529Z,4.87
2024-03-04T02:43:14.379Z,5.02
2024-03-04T02:45:44.516Z,5.00
2024-03-04T02:48:11.189Z,4.59
2024-03-04T02:50:39.504Z,4.27
2024-03-04T02:53:06.904Z,3.89
2024-03-04T02:55:36.639Z,3.61
2024-03-04T02:58:03.401Z,3.42
2024-03-04T03:00:30.449Z,3.21
2024-03-04T03:02:57.509Z,3.05
2024-03-04T03:05:24.334Z,2.99
2024-03-04T03:07:51.278Z,2.92
2024-03-04T03:10:18.599Z,2.91
2024-03-04T03:12:45.476Z,2.92
2024-03-04T03:15:12.311Z,3.07
2024-03-04T03:17:39.083Z,3.35
2024-03-04T03:20:17.875Z,3.59
2024-03-04T03:22:50.068Z,3.66
2024-03-04T03:25:17.792Z,3.67
2024-03-04T03:27:45.348Z,3.73
2024-03-04T03:30:12.880Z,3.82
2024-03-04T03:32:40.959Z,3.93
2024-03-04T03:35:08.383Z,4.03
2024-03-04T03:37:35.522Z,4.08
2024-03-04T03:40:04.237Z,4.14
2024-03-04T03:42:34.946Z,4.17
2024-03-04T03:45:01.833Z,4.23
2024-03-04T03:47:28.766Z,4.37
2024-03-04T03:49:55.680Z,4.30
2024-03-04T03:52:22.429Z,4.38
2024-03-04T03:54:48.989Z,4.58
2024-03-04T03:57:15.867Z,4.75
2024-03-04T03:59:43.932Z,4.78
2024-03-04T04:02:11.122Z,4.83
2024-03-04T04:04:37.989Z,4.92
2024-03-04T04:07:05.006Z,5.34
2024-03-04T04:09:31.761Z,5.37
2024-03-04T04:11:58.681Z,5.54
2024-03-04T04:14:25.690Z,5.70
2024-03-04T04:16:53.170Z,5.89
2024-03-04T04:19:20.098Z,5.70
2024-03-04T04:21:46.752Z,5.73
2024-03-04T04:24:13.457Z,5.69
2024-03-04T04:26:40.200Z,5.56
2024-03-04T04:29:06.820Z,5.55
2024-03-04T04:31:33.821Z,5.61
2024-03-04T04:34:00.686Z,5.79
2024-03-04T04:36:27.472Z,5.55
2024-03-04T04:38:54.209Z,5.38
2024-03-04T04:41:21.960Z,5.16
2024-03-04T04:43:48.793Z,4.99
2024-03-04T04:46:16.491Z,4.88
2024-03-04T04:48:43.802Z,4.85
2024-03-04T04:51:10.470Z,4.88
2024-03-04T04:53:37.607Z,4.98
2024-03-04T04:56:04.701Z,4.95
2024-03-04T04:58:31.439Z,5.05
2024-03-04T05:00:58.571Z,5.08
2024-03-04T05:03:39.776Z,4.99
2024-03-04T05:06:16.044Z,5.00
2024-03-04T05:08:42.764Z,5.05
2024-03-04T05:11:11.182Z,4.92
2024-03-04T05:13:37.950Z,4.91
2024-03-04T05:16:08.654Z,4.91
2024-03-04T05:18:36.856Z,4.94
2024-03-04T05:21:04.675Z,4.94
2024-03-04T05:23:31.982Z,4.96
2024-03-04T05:25:59.719Z,5.00
2024-03-04T05:28:26.897Z,4.92
2024-03-04T05:30:54.212Z,4.94
2024-03-04T05:33:21.863Z,4.98
2024-03-04T05:35:48.548Z,4.98
2024-03-04T05:38:15.266Z,4.95
2024-03-04T05:40:42.477Z,5.01
2024-03-04T05:43:09.154Z,5.09
2024-03-04T05:45:36.029Z,5.27
2024-03-04T05:48:03.071Z,5.36
2024-03-04T05:50:32.517Z,5.33
2024-03-04T05:53:00.844Z,5.31
2024-03-04T05:55:28.218Z,5.30
2024-03-04T05:57:55.050Z,5.21
2024-03-04T06:00:22.130Z,5.11
2024-03-04T06:02:48.953Z,5.10
2024-03-04T06:05:15.890Z,5.09
2024-03-04T06:07:42.849Z,5.11
2024-03-04T06:10:10.635Z,5.27
2024-03-04T06:12:37.581Z,5.37
2024-03-04T06:15:04.671Z,5.37
2024-03-04T06:17:31.819Z,5.56
2024-03-04T06:19:58.604Z,5.65
2024-03-04T06:22:26.937Z,5.86
2024-03-04T06:24:55.056Z,5.98
2024-03-04T06:27:24.030Z,5.93
2024-03-04T06:29:50.808Z,6.10
2024-03-04T06:32:17.717Z,6.12
2024-03-04T06:34:44.521Z,6.09
2024-03-04T06:37:12.662Z,6.11
2024-03-04T06:39:39.475Z,6.16
2024-03-04T06:42:06.512Z,6.26
2024-03-04T06:44:33.427Z,6.46
2024-03-04T06:47:00.008Z,6.64
2024-03-04T06:49:26.727Z,6.87
2024-03-04T06:51:53.773Z,7.03
2024-03-04T06:54:20.343Z,7.20
2024-03-04T06:56:47.770Z,7.23
2024-03-04T06:59:14.450Z,7.15
2024-03-04T07:01:41.120Z,7.03
2024-03-04T07:04:08.924Z,7.04
2024-03-04T07:06:35.742Z,7.25
2024-03-04T07:09:04.270Z,7.14
2024-03-04T07:11:31.046Z,7.21
2024-03-04T07:13:57.907Z,7.36
2024-03-04T07:16:24.648Z,7.28
2024-03-04T07:18:53.715Z,7.21
2024-03-04T07:21:21.947Z,7.16
2024-03-04T07:23:48.688Z,7.42
2024-03-04T07:26:17.400Z,7.40
2024-03-04T07:28:45.779Z,7.39
2024-03-04T07:31:12.703Z,7.66
2024-03-04T07:33:39.448Z,7.44
2024-03-04T07:36:06.374Z,7.55
2024-03-04T07:38:33.313Z,7.66
2024-03-04T07:41:00.163Z,7.86
2024-03-04T07:43:29.883Z,7.74
2024-03-04T07:45:56.663Z,7.84
2024-03-04T07:48:23.580Z,7.67
2024-03-04T07:50:50.343Z,7.72
2024-03-04T07:53:17.225Z,7.82
2024-03-04T07:55:44.994Z,7.88
2024-03-04T07:58:12.060Z,7.82
2024-03-04T08:00:38.771Z,7.84
2024-03-04T08:03:07.196Z,7.90
2024-03-04T08:05:34.135Z,8.11
2024-03-04T08:08:01.632Z,8.04
2024-03-04T08:10:28.735Z,7.90
2024-03-04T08:12:55.432Z,8.00
2024-03-04T08:15:22.105Z,8.13
2024-03-04T08:17:55.072Z,8.26
2024-03-04T08:20:33.792Z,8.25
2024-03-04T08:23:05.248Z,8.32
2024-03-04T08:25:32.211Z,8.40
2024-03-04T08:27:59.492Z,8.50
2024-03-04T08:30:26.457Z,8.40
2024-03-04T08:32:54.666Z,8.20
2024-03-04T08:35:21.592Z,8.31
2024-03-04T08:37:48.767Z,8.42
2024-03-04T08:40:15.662Z,8.56
2024-03-04T08:42:43.422Z,8.48
2024-03-04T08:45:11.341Z,8.40
2024-03-04T08:47:38.242Z,8.49
2024-03-04T08:50:06.101Z,8.29
2024-03-04T08:52:32.949Z,8.38
2024-03-04T08:54:59.971Z,8.42
2024-03-04T08:57:26.738Z,8.45
2024-03-04T08:59:53.918Z,8.59
2024-03-04T09:02:20.593Z,8.61
2024-03-04T09:04:50.009Z,8.60
2024-03-04T09:07:18.114Z,8.46
2024-03-04T09:09:53.735Z,8.45
2024-03-04T09:12:22.537Z,8.49
2024-03-04T09:14:49.238Z,8.70
2024-03-04T09:17:15.840Z,8.67
2024-03-04T09:19:45.434Z,8.74
2024-03-04T09:22:12.207Z,8.66
2024-03-04T09:24:38.910Z,8.64
2024-03-04T09:27:07.457Z,8.53
2024-03-04T09:29:34.322Z,8.38
2024-03-04T09:32:01.174Z,8.56
2024-03-04T09:34:27.939Z,8.60
2024-03-04T09:36:54.688Z,8.66
2024-03-04T09:39:21.381Z,8.78
2024-03-04T09:41:48.055Z,8.97
2024-03-04T09:44:15.925Z,8.89
2024-03-04T09:46:43.715Z,8.71
2024-03-04T09:49:11.165Z,8.82
2024-03-04T09:51:38.863Z,8.75
2024-03-04T09:54:05.658Z,8.81
2024-03-04T09:56:32.608Z,8.82
2024-03-04T09:58:59.505Z,8.90
2024-03-04T10:01:26.478Z,8.80
2024-03-04T10:03:55.430Z,8.69
2024-03-04T10:06:22.479Z,8.76
2024-03-04T10:08:49.184Z,8.80
2024-03-04T10:11:16.152Z,8.79
2024-03-04T10:13:43.577Z,8.94
2024-03-04T10:16:15.365Z,8.89
2024-03-04T10:18:42.594Z,8.76
2024-03-04T10:21:09.453Z,8.80
2024-03-04T10:23:37.631Z,8.80
2024-03-04T10:26:11.297Z,8.91
2024-03-04T10:28:40.454Z,8.88
2024-03-04T10:31:14.678Z,8.82
2024-03-04T10:33:41.928Z,8.98
2024-03-04T10:36:19.381Z,9.16
2024-03-04T10:38:48.693Z,9.22
2024-03-04T10:41:26.730Z,9.27
2024-03-04T10:43:53.916Z,9.42
2024-03-04T10:46:21.590Z,9.46
2024-03-04T10:48:49.003Z,9.52
2024-03-04T10:51:19.228Z,9.55
2024-03-04T10:53:46.118Z,9.51
2024-03-04T10:56:18.316Z,9.44
2024-03-04T10:58:45.691Z,9.23
2024-03-04T11:01:15.619Z,9.36
2024-03-04T11:03:44.549Z,9.48
2024-03-04T11:06:20.630Z,9.43
2024-03-04T11:08:55.858Z,9.36
2024-03-04T11:11:30.382Z,9.46
2024-03-04T11:14:04.928Z,9.49
2024-03-04T11:16:45.684Z,9.50
2024-03-04T11:19:21.116Z,9.50
2024-03-04T11:21:48.454Z,9.46
2024-03-04T11:24:17.622Z,9.49
2024-03-04T11:26:46.122Z,9.41
2024-03-04T11:29:15.273Z,9.44
2024-03-04T11:31:41.983Z,9.49
2024-03-04T11:34:14.390Z,9.35
2024-03-04T11:36:41.350Z,9.41
2024-03-04T11:39:17.617Z,9.21
2024-03-04T11:41:46.356Z,9.15
2024-03-04T11:44:13.359Z,9.10
2024-03-04T11:46:45.559Z,9.11
2024-03-04T11:49:29.459Z,9.19
2024-03-04T11:52:11.509Z,9.25
2024-03-04T11:54:38.408Z,9.35
2024-03-04T11:57:07.734Z,9.55
2024-03-04T11:59:36.841Z,9.50
2024-03-04T12:02:21.986Z,9.37
2024-03-04T12:04:48.735Z,9.56
2024-03-04T12:07:15.535Z,9.34
2024-03-04T12:09:56.971Z,9.64
2024-03-04T12:12:29.850Z,9.66
2024-03-04T12:14:56.925Z,9.53
2024-03-04T12:17:23.646Z,10.01
2024-03-04T12:20:13.125Z,10.15
2024-03-04T12:22:40.116Z,10.23
2024-03-04T12:25:09.822Z,10.04
2024-03-04T12:27:39.245Z,9.89
2024-03-04T12:30:14.001Z,9.86
2024-03-04T12:32:42.948Z,9.70
2024-03-04T12:35:23.999Z,9.55
2024-03-04T12:37:52.176Z,9.59
2024-03-04T12:40:20.937Z,9.61
2024-03-04T12:42:55.342Z,9.58
2024-03-04T12:45:23.869Z,9.53
2024-03-04T12:47:52.859Z,9.58
2024-03-04T12:50:21.308Z,9.53
2024-03-04T12:52:48.429Z,9.38
2024-03-04T12:55:16.533Z,9.40
2024-03-04T12:57:44.096Z,9.36
2024-03-04T13:00:15.385Z,9.39
2024-03-04T13:02:46.191Z,9.49
2024-03-04T13:05:14.017Z,9.71
2024-03-04T13:07:42.013Z,10.01
2024-03-04T13:10:11.102Z,10.12
2024-03-04T13:12:39.450Z,10.18
2024-03-04T13:15:08.273Z,10.25
2024-03-04T13:17:40.479Z,10.39
2024-03-04T13:20:11.608Z,10.38
2024-03-04T13:22:39.863Z,10.42
2024-03-04T13:25:07.726Z,10.62
2024-03-04T13:27:39.181Z,10.61
2024-03-04T13:30:07.920Z,10.82
2024-03-04T13:32:34.935Z,10.98
2024-03-04T13:35:02.060Z,10.77
2024-03-04T13:37:29.378Z,10.65
2024-03-04T13:39:56.744Z,10.59
2024-03-04T13:42:23.578Z,10.38
2024-03-04T13:44:50.322Z,10.18
2024-03-04T13:47:17.595Z,10.12
2024-03-04T13:49:45.302Z,10.18
2024-03-04T13:52:12.209Z,10.14
2024-03-04T13:54:38.945Z,10.04
2024-03-04T13:57:05.860Z,10.14
2024-03-04T13:59:34.901Z,10.14
2024-03-04T14:02:02.693Z,10.09
2024-03-04T14:04:29.816Z,10.22
2024-03-04T14:06:56.892Z,10.02
2024-03-04T14:09:24.091Z,9.88
2024-03-04T14:11:51.421Z,9.78
2024-03-04T14:14:19.024Z,9.80
2024-03-04T14:16:47.566Z,9.74
2024-03-04T14:19:15.111Z,9.72
2024-03-04T14:21:42.753Z,9.77
2024-03-04T14:24:09.720Z,9.77
2024-03-04T14:26:37.480Z,9.85
2024-03-04T14:29:06.453Z,9.91
2024-03-04T14:31:34.421Z,9.99
2024-03-04T14:34:01.737Z,10.10
2024-03-04T14:36:29.741Z,10.19
2024-03-04T14:38:56.973Z,10.30
2024-03-04T14:41:24.205Z,10.25
2024-03-04T14:43:51.028Z,10.21
2024-03-04T14:46:17.968Z,10.20
2024-03-04T14:48:46.705Z,10.24
2024-03-04T14:51:15.813Z,10.21
2024-03-04T14:53:43.235Z,10.09
2024-03-04T14:56:09.898Z,10.15
2024-03-04T14:58:36.624Z,10.12
2024-03-04T15:01:03.727Z,9.99
2024-03-04T15:03:32.154Z,9.96
2024-03-04T15:06:00.875Z,10.07
2024-03-04T15:08:27.741Z,10.09
2024-03-04T15:10:56.961Z,10.13
2024-03-04T15:13:25.214Z,10.02
2024-03-04T15:15:51.855Z,9.88
2024-03-04T15:18:22.301Z,9.88
2024-03-04T15:20:54.464Z,9.84
2024-03-04T15:23:21.138Z,10.04
2024-03-04T15:25:51.421Z,9.99
2024-03-04T15:28:18.059Z,9.99
2024-03-04T15:30:44.734Z,9.95
2024-03-04T15:33:13.605Z,9.84
2024-03-04T15:35:43.863Z,9.81
2024-03-04T15:38:11.097Z,9.72
2024-03-04T15:40:37.930Z,9.69
2024-03-04T15:43:05.684Z,9.65
2024-03-04T15:45:32.649Z,9.59
2024-03-04T15:47:59.277Z,9.54
2024-03-04T15:50:26.107Z,9.40
2024-03-04T15:52:53.855Z,9.35
2024-03-04T15:55:21.036Z,9.33
2024-03-04T15:57:50.643Z,9.26
2024-03-04T16:00:18.001Z,9.22
2024-03-04T16:02:45.854Z,9.15
2024-03-04T16:05:17.689Z,9.13
2024-03-04T16:07:44.846Z,9.24
2024-03-04T16:10:12.330Z,9.12
2024-03-04T16:12:39.925Z,9.09
2024-03-04T16:15:08.072Z,9.08
2024-03-04T16:17:35.674Z,9.04
2024-03-04T16:20:06.496Z,9.04
2024-03-04T16:22:33.120Z,8.97
2024-03-04T16:25:00.018Z,8.97
2024-03-04T16:27:27.405Z,8.87
2024-03-04T16:29:54.072Z,8.86
2024-03-04T16:32:20.671Z,8.89
2024-03-04T16:34:47.477Z,8.95
2024-03-04T16:37:14.186Z,8.92
2024-03-04T16:39:40.821Z,8.90
2024-03-04T16:42:07.484Z,8.85
2024-03-04T16:44:34.195Z,8.86
2024-03-04T16:47:00.886Z,8.87
2024-03-04T16:49:27.509Z,8.79
2024-03-04T16:51:54.414Z,8.77
2024-03-04T16:54:21.540Z,8.76
2024-03-04T16:56:48.873Z,8.69
2024-03-04T16:59:16.259Z,8.65
2024-03-04T17:01:46.199Z,8.59
2024-03-04T17:04:15.513Z,8.59
2024-03-04T17:06:42.410Z,8.51
2024-03-04T17:09:09.157Z,8.46
2024-03-04T17:11:38.966Z,8.33
2024-03-04T17:14:05.783Z,8.42
2024-03-04T17:16:32.855Z,8.44
2024-03-04T17:18:59.855Z,8.43
2024-03-04T17:21:27.090Z,8.43
2024-03-04T17:23:53.863Z,8.39
2024-03-04T17:26:20.604Z,8.35
2024-03-04T17:28:47.373Z,8.28
2024-03-04T17:31:22.746Z,8.27
2024-03-04T17:33:49.585Z,8.22
2024-03-04T17:36:16.348Z,8.17
2024-03-04T17:38:43.254Z,8.20
2024-03-04T17:41:10.173Z,8.15
2024-03-04T17:43:37.920Z,8.21
2024-03-04T17:46:05.240Z,8.24
2024-03-04T17:48:34.553Z,8.23
2024-03-04T17:51:01.611Z,8.20
2024-03-04T17:53:28.425Z,8.19
2024-03-04T17:55:55.160Z,8.11
2024-03-04T17:58:22.178Z,8.14
2024-03-04T18:00:50.716Z,8.13
2024-03-04T18:03:18.169Z,8.18
2024-03-04T18:05:45.079Z,8.24
2024-03-04T18:08:11.976Z,8.21
2024-03-04T18:10:38.716Z,8.16
2024-03-04T18:13:07.031Z,8.12
2024-03-04T18:15:34.195Z,8.06
2024-03-04T18:18:01.124Z,8.00
2024-03-04T18:20:27.962Z,8.00
2024-03-04T18:22:54.897Z,7.90
2024-03-04T18:25:21.930Z,7.91
2024-03-04T18:27:50.884Z,7.96
2024-03-04T18:30:20.897Z,7.98
2024-03-04T18:32:48.145Z,8.02
2024-03-04T18:35:15.040Z,8.06
2024-03-04T18:37:42.724Z,8.12
2024-03-04T18:40:10.004Z,8.04
2024-03-04T18:42:36.699Z,8.04
2024-03-04T18:45:04.042Z,7.97
2024-03-04T18:47:30.616Z,7.96
2024-03-04T18:49:57.532Z,7.88
2024-03-04T18:52:26.195Z,7.79
2024-03-04T18:54:53.592Z,7.64
2024-03-04T18:57:20.606Z,7.44
2024-03-04T18:59:47.834Z,7.31
2024-03-04T19:02:15.391Z,7.30
2024-03-04T19:04:42.412Z,7.22
2024-03-04T19:07:09.567Z,7.23
2024-03-04T19:09:36.233Z,7.23
2024-03-04T19:12:04.927Z,7.19
2024-03-04T19:14:32.154Z,7.14
2024-03-04T19:16:58.917Z,7.04
2024-03-04T19:19:25.739Z,6.97
2024-03-04T19:21:52.353Z,6.92
2024-03-04T19:24:19.631Z,6.87
2024-03-04T19:26:46.314Z,6.81
2024-03-04T19:29:12.995Z,6.74
2024-03-04T19:31:40.059Z,6.63
2024-03-04T19:34:10.093Z,6.65
2024-03-04T19:36:42.430Z,6.68
2024-03-04T19:39:10.525Z,6.54
2024-03-04T19:41:37.114Z,6.47
2024-03-04T19:44:05.697Z,6.20
2024-03-04T19:46:32.538Z,6.01
2024-03-04T19:49:00.536Z,5.75
2024-03-04T19:51:27.903Z,5.63
2024-03-04T19:53:55.062Z,5.58
2024-03-04T19:56:21.848Z,5.49
2024-03-04T19:58:48.759Z,5.37
2024-03-04T20:01:16.711Z,5.31
2024-03-04T20:03:44.436Z,5.20
2024-03-04T20:06:11.880Z,5.12
2024-03-04T20:08:41.456Z,5.07
2024-03-04T20:11:13.302Z,4.96
2024-03-04T20:13:43.957Z,4.93
2024-03-04T20:16:13.283Z,4.91
2024-03-04T20:18:40.235Z,4.82
2024-03-04T20:21:07.774Z,4.78
2024-03-04T20:23:34.861Z,4.62
2024-03-04T20:26:01.874Z,4.59
2024-03-04T20:28:32.229Z,4.47
2024-03-04T20:30:59.097Z,4.36
2024-03-04T20:33:25.874Z,4.27
2024-03-04T20:35:52.522Z,4.26
2024-03-04T20:38:19.697Z,4.24
2024-03-04T20:40:48.288Z,4.16
2024-03-04T20:43:15.723Z,4.05
2024-03-04T20:45:44.401Z,4.05
2024-03-04T20:48:11.299Z,4.08
2024-03-04T20:50:39.551Z,4.06
2024-03-04T20:53:06.569Z,4.06
2024-03-04T20:55:34.990Z,4.04
2024-03-04T20:58:02.174Z,3.97
2024-03-04T21:00:28.961Z,3.96
2024-03-04T21:02:55.829Z,3.89
2024-03-04T21:05:24.835Z,3.80
2024-03-04T21:07:54.774Z,3.75
2024-03-04T21:10:23.340Z,3.71
2024-03-04T21:12:52.031Z,3.71
2024-03-04T21:15:19.802Z,3.68
2024-03-04T21:17:49.333Z,3.62
2024-03-04T21:20:16.670Z,3.63
2024-03-04T21:22:45.974Z,3.66
2024-03-04T21:25:15.000Z,3.66
2024-03-04T21:27:42.515Z,3.63
2024-03-04T21:30:11.115Z,3.53
2024-03-04T21:32:39.006Z,3.49
2024-03-04T21:35:06.461Z,3.42
2024-03-04T21:37:33.694Z,3.43
2024-03-04T21:40:01.616Z,3.50
2024-03-04T21:42:28.945Z,3.62
2024-03-04T21:44:56.691Z,3.73
2024-03-04T21:47:23.719Z,3.89
2024-03-04T21:49:50.342Z,3.97
2024-03-04T21:52:18.781Z,4.10
2024-03-04T21:54:45.728Z,4.28
2024-03-04T21:57:12.654Z,4.34
2024-03-04T21:59:39.725Z,4.45
2024-03-04T22:02:07.202Z,4.52
2024-03-04T22:04:34.029Z,4.62
2024-03-04T22:07:00.866Z,4.72
2024-03-04T22:09:27.841Z,4.75
2024-03-04T22:11:54.576Z,4.80
2024-03-04T22:14:22.203Z,4.82
2024-03-04T22:16:49.109Z,4.91
2024-03-04T22:19:16.261Z,4.95
2024-03-04T22:21:43.162Z,4.90
2024-03-04T22:24:09.996Z,4.92
2024-03-04T22:26:37.254Z,4.98
2024-03-04T22:29:08.047Z,5.05
2024-03-04T22:31:41.843Z,5.12
2024-03-04T22:34:10.214Z,5.20
2024-03-04T22:36:45.960Z,5.22
2024-03-04T22:39:13.283Z,5.29
2024-03-04T22:41:49.512Z,5.31
2024-03-04T22:44:16.741Z,5.34
2024-03-04T22:46:44.370Z,5.34
2024-03-04T22:49:11.323Z,5.26
2024-03-04T22:51:38.482Z,5.09
2024-03-04T22:54:05.128Z,5.04
2024-03-04T22:56:33.576Z,5.06
2024-03-04T22:59:00.449Z,5.10
2024-03-04T23:01:31.318Z,5.21
2024-03-04T23:03:59.262Z,5.26
2024-03-04T23:06:26.401Z,5.26
2024-03-04T23:08:53.434Z,5.33
2024-03-04T23:11:21.998Z,5.36
2024-03-04T23:13:49.265Z,5.41
2024-03-04T23:16:16.333Z,5.42
2024-03-04T23:18:43.216Z,5.32
2024-03-04T23:21:12.572Z,5.30
2024-03-04T23:23:39.547Z,5.24
2024-03-04T23:26:07.907Z,5.31
2024-03-04T23:28:36.170Z,5.31
2024-03-04T23:31:03.610Z,5.31
2024-03-04T23:33:31.316Z,5.36
2024-03-04T23:35:58.546Z,5.34
2024-03-04T23:38:26.393Z,5.31
2024-03-04T23:40:54.276Z,5.34
2024-03-04T23:43:22.210Z,5.34
2024-03-04T23:45:49.261Z,5.30
2024-03-04T23:48:16.039Z,5.29
2024-03-04T23:50:43.018Z,5.38
2024-03-04T23:53:10.144Z,5.43
2024-03-04T23:55:37.151Z,5.46
2024-03-04T23:58:04.076Z,5.45
